sensor_id;sensor_type;location;lat;lon;timestamp;P1;durP1;ratioP1;P2;durP2;ratioP2
11931;SDS011;6025;51.368;6.788;2023-03-07T00:03:41;9.03;;;6.80;;
11931;SDS011;6025;51.368;6.788;2023-03-07T00:08:33;9.67;;;6.30;;
11931;SDS011;6025;51.368;6.788;2023-03-07T00:13:26;8.60;;;6.97;;
11931;SDS011;6025;51.368;6.788;2023-03-07T00:18:19;7.20;;;5.87;;
11931;SDS011;6025;51.368;6.788;2023-03-07T00:23:10;9.20;;;6.47;;
11931;SDS011;6025;51.368;6.788;2023-03-07T00:28:02;8.57;;;6.57;;
11931;SDS011;6025;51.368;6.788;2023-03-07T00:32:55;9.03;;;6.10;;
11931;SDS011;6025;51.368;6.788;2023-03-07T00:37:46;7.60;;;6.47;;
11931;SDS011;6025;51.368;6.788;2023-03-07T00:42:38;8.03;;;6.43;;
11931;SDS011;6025;51.368;6.788;2023-03-07T00:47:29;9.10;;;6.53;;
11931;SDS011;6025;51.368;6.788;2023-03-07T00:52:22;8.10;;;6.57;;
11931;SDS011;6025;51.368;6.788;2023-03-07T00:57:13;6.70;;;5.83;;
11931;SDS011;6025;51.368;6.788;2023-03-07T01:02:05;7.40;;;5.87;;
11931;SDS011;6025;51.368;6.788;2023-03-07T01:06:56;7.50;;;6.17;;
11931;SDS011;6025;51.368;6.788;2023-03-07T01:11:49;6.77;;;5.57;;
11931;SDS011;6025;51.368;6.788;2023-03-07T01:16:42;7.83;;;6.17;;
11931;SDS011;6025;51.368;6.788;2023-03-07T01:21:34;7.37;;;5.80;;
11931;SDS011;6025;51.368;6.788;2023-03-07T01:26:27;8.37;;;6.27;;
11931;SDS011;6025;51.368;6.788;2023-03-07T01:31:21;6.17;;;4.83;;
11931;SDS011;6025;51.368;6.788;2023-03-07T01:36:14;5.47;;;4.73;;
11931;SDS011;6025;51.368;6.788;2023-03-07T01:41:08;5.67;;;4.90;;
11931;SDS011;6025;51.368;6.788;2023-03-07T01:51:20;4.43;;;3.97;;
11931;SDS011;6025;51.368;6.788;2023-03-07T01:56:12;4.40;;;3.33;;
11931;SDS011;6025;51.368;6.788;2023-03-07T02:01:04;3.53;;;3.17;;
11931;SDS011;6025;51.368;6.788;2023-03-07T02:06:00;3.00;;;2.70;;
11931;SDS011;6025;51.368;6.788;2023-03-07T02:10:54;4.70;;;2.43;;
11931;SDS011;6025;51.368;6.788;2023-03-07T02:15:46;3.53;;;2.63;;
11931;SDS011;6025;51.368;6.788;2023-03-07T02:20:41;2.60;;;2.40;;
11931;SDS011;6025;51.368;6.788;2023-03-07T02:25:39;4.73;;;2.93;;
11931;SDS011;6025;51.368;6.788;2023-03-07T02:30:34;3.63;;;3.27;;
11931;SDS011;6025;51.368;6.788;2023-03-07T02:35:26;3.50;;;3.20;;
11931;SDS011;6025;51.368;6.788;2023-03-07T02:40:18;3.87;;;3.47;;
11931;SDS011;6025;51.368;6.788;2023-03-07T02:45:12;4.63;;;3.30;;
11931;SDS011;6025;51.368;6.788;2023-03-07T02:50:08;4.37;;;3.80;;
11931;SDS011;6025;51.368;6.788;2023-03-07T02:55:00;4.20;;;3.60;;
11931;SDS011;6025;51.368;6.788;2023-03-07T02:59:52;4.30;;;3.90;;
11931;SDS011;6025;51.368;6.788;2023-03-07T03:04:44;4.40;;;4.00;;
11931;SDS011;6025;51.368;6.788;2023-03-07T03:09:36;4.37;;;3.97;;
11931;SDS011;6025;51.368;6.788;2023-03-07T03:14:28;4.57;;;4.07;;
11931;SDS011;6025;51.368;6.788;2023-03-07T03:19:21;4.43;;;3.67;;
11931;SDS011;6025;51.368;6.788;2023-03-07T03:24:12;4.87;;;4.00;;
11931;SDS011;6025;51.368;6.788;2023-03-07T03:29:05;4.57;;;4.10;;
11931;SDS011;6025;51.368;6.788;2023-03-07T03:33:57;4.47;;;3.67;;
11931;SDS011;6025;51.368;6.788;2023-03-07T03:38:50;4.40;;;3.73;;
11931;SDS011;6025;51.368;6.788;2023-03-07T03:43:42;4.40;;;3.90;;
11931;SDS011;6025;51.368;6.788;2023-03-07T03:48:35;4.60;;;3.80;;
11931;SDS011;6025;51.368;6.788;2023-03-07T03:53:26;4.60;;;3.37;;
11931;SDS011;6025;51.368;6.788;2023-03-07T03:58:18;3.83;;;2.97;;
11931;SDS011;6025;51.368;6.788;2023-03-07T04:03:10;4.17;;;3.27;;
11931;SDS011;6025;51.368;6.788;2023-03-07T04:08:03;3.43;;;2.93;;
11931;SDS011;6025;51.368;6.788;2023-03-07T04:12:54;4.07;;;3.03;;
11931;SDS011;6025;51.368;6.788;2023-03-07T04:17:46;4.57;;;3.70;;
11931;SDS011;6025;51.368;6.788;2023-03-07T04:22:37;5.37;;;4.70;;
11931;SDS011;6025;51.368;6.788;2023-03-07T04:27:30;6.63;;;4.70;;
11931;SDS011;6025;51.368;6.788;2023-03-07T04:32:24;6.27;;;3.90;;
11931;SDS011;6025;51.368;6.788;2023-03-07T04:37:15;7.07;;;5.97;;
11931;SDS011;6025;51.368;6.788;2023-03-07T04:42:07;6.57;;;5.43;;
11931;SDS011;6025;51.368;6.788;2023-03-07T04:47:00;7.73;;;6.13;;
11931;SDS011;6025;51.368;6.788;2023-03-07T04:51:51;8.20;;;6.40;;
11931;SDS011;6025;51.368;6.788;2023-03-07T04:56:43;7.27;;;6.10;;
11931;SDS011;6025;51.368;6.788;2023-03-07T05:01:34;7.07;;;5.93;;
11931;SDS011;6025;51.368;6.788;2023-03-07T05:06:27;7.87;;;6.43;;
11931;SDS011;6025;51.368;6.788;2023-03-07T05:11:19;8.27;;;6.90;;
11931;SDS011;6025;51.368;6.788;2023-03-07T05:16:10;7.27;;;6.47;;
11931;SDS011;6025;51.368;6.788;2023-03-07T05:21:02;7.93;;;7.03;;
11931;SDS011;6025;51.368;6.788;2023-03-07T05:25:55;8.50;;;6.80;;
11931;SDS011;6025;51.368;6.788;2023-03-07T05:30:47;7.83;;;7.03;;
11931;SDS011;6025;51.368;6.788;2023-03-07T05:35:38;8.83;;;7.30;;
11931;SDS011;6025;51.368;6.788;2023-03-07T05:40:30;9.37;;;8.07;;
11931;SDS011;6025;51.368;6.788;2023-03-07T05:45:23;7.53;;;6.47;;
11931;SDS011;6025;51.368;6.788;2023-03-07T05:50:14;9.70;;;7.20;;
11931;SDS011;6025;51.368;6.788;2023-03-07T05:55:08;8.70;;;7.43;;
11931;SDS011;6025;51.368;6.788;2023-03-07T06:00:00;7.77;;;6.70;;
11931;SDS011;6025;51.368;6.788;2023-03-07T06:04:53;10.53;;;7.80;;
11931;SDS011;6025;51.368;6.788;2023-03-07T06:09:44;8.73;;;7.60;;
11931;SDS011;6025;51.368;6.788;2023-03-07T06:14:36;8.27;;;7.17;;
11931;SDS011;6025;51.368;6.788;2023-03-07T06:19:27;9.17;;;7.47;;
11931;SDS011;6025;51.368;6.788;2023-03-07T06:24:21;8.47;;;7.43;;
11931;SDS011;6025;51.368;6.788;2023-03-07T06:29:13;8.60;;;7.30;;
11931;SDS011;6025;51.368;6.788;2023-03-07T06:34:04;10.47;;;8.30;;
11931;SDS011;6025;51.368;6.788;2023-03-07T06:38:56;10.20;;;7.97;;
11931;SDS011;6025;51.368;6.788;2023-03-07T06:43:50;10.37;;;8.60;;
11931;SDS011;6025;51.368;6.788;2023-03-07T06:48:42;11.10;;;8.30;;
11931;SDS011;6025;51.368;6.788;2023-03-07T06:53:34;9.90;;;8.13;;
11931;SDS011;6025;51.368;6.788;2023-03-07T06:58:25;10.13;;;8.13;;
11931;SDS011;6025;51.368;6.788;2023-03-07T07:03:19;10.03;;;7.60;;
11931;SDS011;6025;51.368;6.788;2023-03-07T07:08:10;9.50;;;7.67;;
11931;SDS011;6025;51.368;6.788;2023-03-07T07:13:02;8.57;;;6.93;;
11931;SDS011;6025;51.368;6.788;2023-03-07T07:17:55;10.70;;;8.33;;
11931;SDS011;6025;51.368;6.788;2023-03-07T07:22:48;9.20;;;7.40;;
11931;SDS011;6025;51.368;6.788;2023-03-07T07:27:40;9.87;;;8.17;;
11931;SDS011;6025;51.368;6.788;2023-03-07T07:32:31;10.73;;;7.77;;
11931;SDS011;6025;51.368;6.788;2023-03-07T07:37:23;11.43;;;8.00;;
11931;SDS011;6025;51.368;6.788;2023-03-07T07:42:16;11.57;;;8.53;;
11931;SDS011;6025;51.368;6.788;2023-03-07T07:47:08;10.27;;;7.03;;
11931;SDS011;6025;51.368;6.788;2023-03-07T07:52:00;13.60;;;6.90;;
11931;SDS011;6025;51.368;6.788;2023-03-07T07:56:55;9.53;;;7.43;;
11931;SDS011;6025;51.368;6.788;2023-03-07T08:01:49;10.13;;;7.70;;
11931;SDS011;6025;51.368;6.788;2023-03-07T08:06:41;9.93;;;7.30;;
11931;SDS011;6025;51.368;6.788;2023-03-07T08:11:33;11.23;;;8.00;;
11931;SDS011;6025;51.368;6.788;2023-03-07T08:16:25;9.13;;;7.23;;
11931;SDS011;6025;51.368;6.788;2023-03-07T08:21:18;9.83;;;7.30;;
11931;SDS011;6025;51.368;6.788;2023-03-07T08:26:10;8.83;;;6.90;;
11931;SDS011;6025;51.368;6.788;2023-03-07T08:31:06;9.87;;;7.47;;
11931;SDS011;6025;51.368;6.788;2023-03-07T08:35:58;9.40;;;7.03;;
11931;SDS011;6025;51.368;6.788;2023-03-07T08:40:52;11.23;;;7.47;;
11931;SDS011;6025;51.368;6.788;2023-03-07T08:45:44;9.47;;;6.23;;
11931;SDS011;6025;51.368;6.788;2023-03-07T08:50:35;6.67;;;5.87;;
11931;SDS011;6025;51.368;6.788;2023-03-07T08:55:29;10.17;;;7.50;;
11931;SDS011;6025;51.368;6.788;2023-03-07T09:00:23;9.63;;;6.90;;
11931;SDS011;6025;51.368;6.788;2023-03-07T09:05:15;8.70;;;6.83;;
11931;SDS011;6025;51.368;6.788;2023-03-07T09:10:07;8.87;;;6.73;;
11931;SDS011;6025;51.368;6.788;2023-03-07T09:15:00;3.33;;;3.03;;
11931;SDS011;6025;51.368;6.788;2023-03-07T09:19:53;3.70;;;3.30;;
11931;SDS011;6025;51.368;6.788;2023-03-07T09:24:45;2.53;;;2.33;;
11931;SDS011;6025;51.368;6.788;2023-03-07T09:29:37;3.27;;;2.97;;
11931;SDS011;6025;51.368;6.788;2023-03-07T09:34:29;2.60;;;2.10;;
11931;SDS011;6025;51.368;6.788;2023-03-07T09:39:22;2.47;;;2.00;;
11931;SDS011;6025;51.368;6.788;2023-03-07T09:44:16;3.90;;;1.80;;
11931;SDS011;6025;51.368;6.788;2023-03-07T09:49:17;1.73;;;1.60;;
11931;SDS011;6025;51.368;6.788;2023-03-07T09:54:10;2.00;;;1.60;;
11931;SDS011;6025;51.368;6.788;2023-03-07T09:59:08;1.73;;;1.53;;
11931;SDS011;6025;51.368;6.788;2023-03-07T10:04:04;2.30;;;1.60;;
11931;SDS011;6025;51.368;6.788;2023-03-07T10:08:57;1.53;;;1.17;;
11931;SDS011;6025;51.368;6.788;2023-03-07T10:13:54;1.33;;;1.20;;
11931;SDS011;6025;51.368;6.788;2023-03-07T10:19:08;1.80;;;1.33;;
11931;SDS011;6025;51.368;6.788;2023-03-07T10:24:07;1.50;;;1.40;;
11931;SDS011;6025;51.368;6.788;2023-03-07T10:29:11;1.50;;;1.27;;
11931;SDS011;6025;51.368;6.788;2023-03-07T10:34:10;1.67;;;1.30;;
11931;SDS011;6025;51.368;6.788;2023-03-07T10:39:05;2.63;;;1.80;;
11931;SDS011;6025;51.368;6.788;2023-03-07T10:44:05;2.00;;;1.57;;
11931;SDS011;6025;51.368;6.788;2023-03-07T10:49:06;1.67;;;1.40;;
11931;SDS011;6025;51.368;6.788;2023-03-07T10:54:00;1.87;;;1.47;;
11931;SDS011;6025;51.368;6.788;2023-03-07T10:58:59;2.30;;;1.47;;
11931;SDS011;6025;51.368;6.788;2023-03-07T11:03:54;22.47;;;3.20;;
11931;SDS011;6025;51.368;6.788;2023-03-07T11:08:49;2.60;;;1.50;;
11931;SDS011;6025;51.368;6.788;2023-03-07T11:13:42;2.20;;;1.63;;
11931;SDS011;6025;51.368;6.788;2023-03-07T11:18:57;2.13;;;1.53;;
11931;SDS011;6025;51.368;6.788;2023-03-07T11:23:49;10.23;;;2.17;;
11931;SDS011;6025;51.368;6.788;2023-03-07T11:28:51;3.20;;;1.80;;
11931;SDS011;6025;51.368;6.788;2023-03-07T11:33:55;5.23;;;2.10;;
11931;SDS011;6025;51.368;6.788;2023-03-07T11:38:55;2.80;;;1.60;;
11931;SDS011;6025;51.368;6.788;2023-03-07T11:43:55;2.13;;;1.80;;
11931;SDS011;6025;51.368;6.788;2023-03-07T11:48:55;3.50;;;2.10;;
11931;SDS011;6025;51.368;6.788;2023-03-07T11:53:57;2.43;;;2.00;;
11931;SDS011;6025;51.368;6.788;2023-03-07T11:59:03;2.20;;;1.73;;
11931;SDS011;6025;51.368;6.788;2023-03-07T12:09:38;2.13;;;1.83;;
11931;SDS011;6025;51.368;6.788;2023-03-07T12:14:38;2.23;;;1.83;;
11931;SDS011;6025;51.368;6.788;2023-03-07T12:19:42;1.53;;;1.40;;
11931;SDS011;6025;51.368;6.788;2023-03-07T12:30:17;1.80;;;1.30;;
11931;SDS011;6025;51.368;6.788;2023-03-07T12:35:14;1.50;;;1.40;;
11931;SDS011;6025;51.368;6.788;2023-03-07T12:40:12;1.57;;;1.40;;
11931;SDS011;6025;51.368;6.788;2023-03-07T12:45:08;1.83;;;1.27;;
11931;SDS011;6025;51.368;6.788;2023-03-07T12:50:03;1.30;;;1.20;;
11931;SDS011;6025;51.368;6.788;2023-03-07T12:55:03;1.73;;;1.13;;
11931;SDS011;6025;51.368;6.788;2023-03-07T13:00:00;1.80;;;1.33;;
11931;SDS011;6025;51.368;6.788;2023-03-07T13:04:55;1.70;;;1.40;;
11931;SDS011;6025;51.368;6.788;2023-03-07T13:09:50;1.63;;;1.23;;
11931;SDS011;6025;51.368;6.788;2023-03-07T13:14:44;1.97;;;1.30;;
11931;SDS011;6025;51.368;6.788;2023-03-07T13:24:51;3.00;;;1.73;;
11931;SDS011;6025;51.368;6.788;2023-03-07T13:35:07;6.57;;;5.17;;
11931;SDS011;6025;51.368;6.788;2023-03-07T13:40:01;6.40;;;5.07;;
11931;SDS011;6025;51.368;6.788;2023-03-07T13:44:56;5.60;;;5.00;;
11931;SDS011;6025;51.368;6.788;2023-03-07T13:49:50;6.20;;;4.93;;
11931;SDS011;6025;51.368;6.788;2023-03-07T13:54:52;5.53;;;4.50;;
11931;SDS011;6025;51.368;6.788;2023-03-07T13:59:47;6.53;;;5.57;;
11931;SDS011;6025;51.368;6.788;2023-03-07T14:04:41;6.67;;;5.97;;
11931;SDS011;6025;51.368;6.788;2023-03-07T14:09:57;6.17;;;5.47;;
11931;SDS011;6025;51.368;6.788;2023-03-07T14:15:03;5.97;;;5.33;;
11931;SDS011;6025;51.368;6.788;2023-03-07T14:20:17;5.73;;;4.97;;
11931;SDS011;6025;51.368;6.788;2023-03-07T14:25:22;4.97;;;4.47;;
11931;SDS011;6025;51.368;6.788;2023-03-07T14:30:16;5.50;;;4.60;;
11931;SDS011;6025;51.368;6.788;2023-03-07T14:35:09;5.17;;;4.17;;
11931;SDS011;6025;51.368;6.788;2023-03-07T14:45:24;6.33;;;2.73;;
11931;SDS011;6025;51.368;6.788;2023-03-07T14:50:21;2.60;;;2.40;;
11931;SDS011;6025;51.368;6.788;2023-03-07T14:55:16;3.90;;;2.80;;
11931;SDS011;6025;51.368;6.788;2023-03-07T15:00:12;3.93;;;2.60;;
11931;SDS011;6025;51.368;6.788;2023-03-07T15:05:14;3.50;;;2.50;;
11931;SDS011;6025;51.368;6.788;2023-03-07T15:10:09;2.97;;;2.30;;
11931;SDS011;6025;51.368;6.788;2023-03-07T15:15:04;4.63;;;2.40;;
11931;SDS011;6025;51.368;6.788;2023-03-07T15:19:57;3.63;;;2.13;;
11931;SDS011;6025;51.368;6.788;2023-03-07T15:24:52;2.53;;;2.20;;
11931;SDS011;6025;51.368;6.788;2023-03-07T15:29:44;3.30;;;2.97;;
11931;SDS011;6025;51.368;6.788;2023-03-07T15:34:37;3.50;;;3.17;;
11931;SDS011;6025;51.368;6.788;2023-03-07T15:39:32;3.57;;;3.27;;
11931;SDS011;6025;51.368;6.788;2023-03-07T15:44:26;4.87;;;3.37;;
11931;SDS011;6025;51.368;6.788;2023-03-07T15:49:22;3.30;;;3.00;;
11931;SDS011;6025;51.368;6.788;2023-03-07T15:54:18;4.57;;;3.70;;
11931;SDS011;6025;51.368;6.788;2023-03-07T15:59:22;4.27;;;3.60;;
11931;SDS011;6025;51.368;6.788;2023-03-07T16:04:27;4.17;;;3.77;;
11931;SDS011;6025;51.368;6.788;2023-03-07T16:09:22;4.33;;;3.93;;
11931;SDS011;6025;51.368;6.788;2023-03-07T16:14:16;5.63;;;4.97;;
11931;SDS011;6025;51.368;6.788;2023-03-07T16:19:13;6.10;;;5.33;;
11931;SDS011;6025;51.368;6.788;2023-03-07T16:24:04;5.63;;;5.00;;
11931;SDS011;6025;51.368;6.788;2023-03-07T16:28:57;5.97;;;5.13;;
11931;SDS011;6025;51.368;6.788;2023-03-07T16:33:52;4.90;;;4.40;;
11931;SDS011;6025;51.368;6.788;2023-03-07T16:38:46;6.17;;;5.00;;
11931;SDS011;6025;51.368;6.788;2023-03-07T16:43:38;5.87;;;5.17;;
11931;SDS011;6025;51.368;6.788;2023-03-07T16:48:30;7.07;;;5.33;;
11931;SDS011;6025;51.368;6.788;2023-03-07T16:53:22;6.43;;;5.43;;
11931;SDS011;6025;51.368;6.788;2023-03-07T16:58:17;2.97;;;2.57;;
11931;SDS011;6025;51.368;6.788;2023-03-07T17:03:12;2.93;;;1.80;;
11931;SDS011;6025;51.368;6.788;2023-03-07T17:08:04;2.20;;;1.63;;
11931;SDS011;6025;51.368;6.788;2023-03-07T17:12:57;4.67;;;4.00;;
11931;SDS011;6025;51.368;6.788;2023-03-07T17:17:51;4.80;;;4.33;;
11931;SDS011;6025;51.368;6.788;2023-03-07T17:22:44;3.43;;;2.70;;
11931;SDS011;6025;51.368;6.788;2023-03-07T17:27:38;3.40;;;2.83;;
11931;SDS011;6025;51.368;6.788;2023-03-07T17:32:44;3.83;;;2.50;;
11931;SDS011;6025;51.368;6.788;2023-03-07T17:37:47;3.13;;;2.40;;
11931;SDS011;6025;51.368;6.788;2023-03-07T17:42:43;3.53;;;3.00;;
11931;SDS011;6025;51.368;6.788;2023-03-07T17:47:55;3.33;;;2.93;;
11931;SDS011;6025;51.368;6.788;2023-03-07T17:52:52;3.73;;;3.17;;
11931;SDS011;6025;51.368;6.788;2023-03-07T17:57:47;4.90;;;3.03;;
11931;SDS011;6025;51.368;6.788;2023-03-07T18:02:39;4.57;;;2.67;;
11931;SDS011;6025;51.368;6.788;2023-03-07T18:07:32;4.17;;;3.13;;
11931;SDS011;6025;51.368;6.788;2023-03-07T18:12:28;4.53;;;3.50;;
11931;SDS011;6025;51.368;6.788;2023-03-07T18:17:20;3.80;;;3.00;;
11931;SDS011;6025;51.368;6.788;2023-03-07T18:22:12;6.13;;;4.10;;
11931;SDS011;6025;51.368;6.788;2023-03-07T18:27:04;5.93;;;5.10;;
11931;SDS011;6025;51.368;6.788;2023-03-07T18:31:59;7.93;;;6.03;;
11931;SDS011;6025;51.368;6.788;2023-03-07T18:36:51;10.10;;;7.63;;
11931;SDS011;6025;51.368;6.788;2023-03-07T18:41:43;7.53;;;6.33;;
11931;SDS011;6025;51.368;6.788;2023-03-07T18:46:38;8.93;;;6.00;;
11931;SDS011;6025;51.368;6.788;2023-03-07T18:51:31;8.93;;;7.17;;
11931;SDS011;6025;51.368;6.788;2023-03-07T18:56:23;12.17;;;8.37;;
11931;SDS011;6025;51.368;6.788;2023-03-07T19:01:17;9.00;;;7.43;;
11931;SDS011;6025;51.368;6.788;2023-03-07T19:06:13;8.33;;;6.60;;
11931;SDS011;6025;51.368;6.788;2023-03-07T19:11:08;7.53;;;6.23;;
11931;SDS011;6025;51.368;6.788;2023-03-07T19:16:04;7.10;;;6.00;;
11931;SDS011;6025;51.368;6.788;2023-03-07T19:20:57;6.93;;;5.63;;
11931;SDS011;6025;51.368;6.788;2023-03-07T19:25:50;6.57;;;5.43;;
11931;SDS011;6025;51.368;6.788;2023-03-07T19:30:43;5.93;;;5.23;;
11931;SDS011;6025;51.368;6.788;2023-03-07T19:35:35;7.57;;;5.47;;
11931;SDS011;6025;51.368;6.788;2023-03-07T19:40:27;5.57;;;4.80;;
11931;SDS011;6025;51.368;6.788;2023-03-07T19:45:21;6.50;;;5.50;;
11931;SDS011;6025;51.368;6.788;2023-03-07T19:50:16;7.30;;;6.17;;
11931;SDS011;6025;51.368;6.788;2023-03-07T19:55:08;8.17;;;6.80;;
11931;SDS011;6025;51.368;6.788;2023-03-07T20:00:01;8.93;;;7.33;;
11931;SDS011;6025;51.368;6.788;2023-03-07T20:04:54;10.07;;;7.87;;
11931;SDS011;6025;51.368;6.788;2023-03-07T20:09:50;12.33;;;8.77;;
11931;SDS011;6025;51.368;6.788;2023-03-07T20:14:43;10.03;;;8.00;;
11931;SDS011;6025;51.368;6.788;2023-03-07T20:19:35;11.63;;;8.97;;
11931;SDS011;6025;51.368;6.788;2023-03-07T20:24:27;10.30;;;8.47;;
11931;SDS011;6025;51.368;6.788;2023-03-07T20:29:21;10.40;;;8.33;;
11931;SDS011;6025;51.368;6.788;2023-03-07T20:34:13;10.73;;;7.57;;
11931;SDS011;6025;51.368;6.788;2023-03-07T20:39:06;9.37;;;7.20;;
11931;SDS011;6025;51.368;6.788;2023-03-07T20:44:03;9.33;;;7.40;;
11931;SDS011;6025;51.368;6.788;2023-03-07T20:48:57;11.77;;;7.20;;
11931;SDS011;6025;51.368;6.788;2023-03-07T20:53:51;9.10;;;7.00;;
11931;SDS011;6025;51.368;6.788;2023-03-07T20:58:43;8.53;;;6.37;;
11931;SDS011;6025;51.368;6.788;2023-03-07T21:03:36;8.23;;;6.73;;
11931;SDS011;6025;51.368;6.788;2023-03-07T21:08:30;8.67;;;6.50;;
11931;SDS011;6025;51.368;6.788;2023-03-07T21:13:24;8.13;;;6.60;;
11931;SDS011;6025;51.368;6.788;2023-03-07T21:18:16;10.77;;;6.63;;
11931;SDS011;6025;51.368;6.788;2023-03-07T21:23:07;9.50;;;6.57;;
11931;SDS011;6025;51.368;6.788;2023-03-07T21:28:00;9.53;;;6.50;;
11931;SDS011;6025;51.368;6.788;2023-03-07T21:32:53;11.00;;;6.83;;
11931;SDS011;6025;51.368;6.788;2023-03-07T21:37:45;8.67;;;6.67;;
11931;SDS011;6025;51.368;6.788;2023-03-07T21:42:37;8.07;;;6.77;;
11931;SDS011;6025;51.368;6.788;2023-03-07T21:47:30;9.10;;;6.90;;
11931;SDS011;6025;51.368;6.788;2023-03-07T21:52:22;7.70;;;6.00;;
11931;SDS011;6025;51.368;6.788;2023-03-07T21:57:14;8.20;;;6.20;;
11931;SDS011;6025;51.368;6.788;2023-03-07T22:02:06;8.17;;;5.80;;
11931;SDS011;6025;51.368;6.788;2023-03-07T22:06:59;7.83;;;5.97;;
11931;SDS011;6025;51.368;6.788;2023-03-07T22:11:51;8.97;;;5.67;;
11931;SDS011;6025;51.368;6.788;2023-03-07T22:16:43;8.33;;;5.20;;
11931;SDS011;6025;51.368;6.788;2023-03-07T22:21:35;6.47;;;4.93;;
11931;SDS011;6025;51.368;6.788;2023-03-07T22:26:29;7.23;;;5.10;;
11931;SDS011;6025;51.368;6.788;2023-03-07T22:31:21;7.33;;;5.50;;
11931;SDS011;6025;51.368;6.788;2023-03-07T22:36:16;8.90;;;5.90;;
11931;SDS011;6025;51.368;6.788;2023-03-07T22:41:09;7.73;;;5.90;;
11931;SDS011;6025;51.368;6.788;2023-03-07T22:46:03;8.57;;;5.40;;
11931;SDS011;6025;51.368;6.788;2023-03-07T22:50:55;8.47;;;5.67;;
11931;SDS011;6025;51.368;6.788;2023-03-07T22:55:47;9.80;;;6.17;;
11931;SDS011;6025;51.368;6.788;2023-03-07T23:00:39;9.83;;;6.63;;
11931;SDS011;6025;51.368;6.788;2023-03-07T23:05:34;9.13;;;6.50;;
11931;SDS011;6025;51.368;6.788;2023-03-07T23:10:28;9.13;;;6.00;;
11931;SDS011;6025;51.368;6.788;2023-03-07T23:15:21;9.53;;;6.20;;
11931;SDS011;6025;51.368;6.788;2023-03-07T23:20:15;8.10;;;5.83;;
11931;SDS011;6025;51.368;6.788;2023-03-07T23:25:10;9.77;;;6.37;;
11931;SDS011;6025;51.368;6.788;2023-03-07T23:30:03;12.20;;;6.63;;
11931;SDS011;6025;51.368;6.788;2023-03-07T23:35:04;9.13;;;6.40;;
11931;SDS011;6025;51.368;6.788;2023-03-07T23:40:03;9.57;;;6.57;;
11931;SDS011;6025;51.368;6.788;2023-03-07T23:45:17;11.47;;;6.83;;
11931;SDS011;6025;51.368;6.788;2023-03-07T23:50:10;9.63;;;6.87;;
11931;SDS011;6025;51.368;6.788;2023-03-07T23:55:02;10.30;;;6.73;;
11931;SDS011;6025;51.368;6.788;2023-03-07T23:59:59;10.07;;;6.70;;
